Aviation Digital Data Service (ADDS)

Output produced by METARs form (1752 UTC 30 September 2014)
found at http://www.aviationweather.gov/adds/metars/
 
METAR text: EPBY 301730Z 09002KT 2300 -RA BR OVC015 15/14 Q1024
Conditions at: EPBY (BYDGOSZDZ , PL) observed 1730 UTC 30 September 2014
Temperature: 15.0°C (59°F)
Dewpoint: 14.0°C (57°F) [RH = 94%]
Pressure (altimeter): 30.24 inches Hg (1024.0 mb)
Winds: from the E (90 degrees) at 2 MPH (2 knots; 1.0 m/s)
Visibility: 1.43 miles (2.30 km)
Ceiling: 1500 feet AGL
Clouds: overcast cloud deck at 1500 feet AGL
Weather: -RA BR  (light rain, mist)

Forecast for: EPBY (BYDGOSZDZ , PL)
Text: TAF EPBY 301730Z 3018/0103 VRB02KT 2000 BR BKN020
Forecast period: 1800 UTC 30 September 2014 to 0300 UTC 01 October 2014
Forecast type: FROM: standard forecast or significant change
Winds: variable direction winds at 2 MPH (2 knots; 1.0 m/s)
Visibility: 1.24 miles (2.00 km)
Ceiling: 2000 feet AGL
Clouds: broken clouds at 2000 feet AGL
Weather: BR  (mist)
Text: TEMPO 3018/0103 0800 FG BKN003
Forecast period: 1800 UTC 30 September 2014 to 0300 UTC 01 October 2014
Forecast type: TEMPORARY: The following changes expected for less than half the time period
Visibility: 0.50 miles (0.80 km)
Ceiling: 300 feet AGL
Clouds: broken clouds at 300 feet AGL
Weather: FG  (fog)